SVR901 USSS-URWW
Flight info
| Callsign | SVR901 |
|---|---|
| Flight time | N/A |
| Altitude | 36000 |
| Route | MIKUS6K MIKUS T764 GITEK T691 UROBO R807 RODUN RODUN1J |
| Aircraft | A320/M-SDE3FGHIRWY/LB1 |
Departure
| Time | 2026-05-01 13:52 |
|---|---|
| Airport | Koltsovo Airport (USSS) |
Arrival
| Time | N/A |
|---|---|
| Airport | Volgograd International Airport (URWW) |
| Time | Latitude | Longitude | Altitude | Speed | Heading |
|---|---|---|---|---|---|
| 2026-05-01 13:22 | 56.74933 | 60.80587 | 776 ft | 0 kts | 360° |
| 2026-05-01 13:42 | 56.74925 | 60.80587 | 775 ft | 4 kts | 1° |
| 2026-05-01 13:42 | 56.74898 | 60.80584 | 775 ft | 4 kts | 8° |
| 2026-05-01 13:43 | 56.74872 | 60.80574 | 775 ft | 4 kts | 22° |
| 2026-05-01 13:43 | 56.74851 | 60.80549 | 775 ft | 4 kts | 68° |
| 2026-05-01 13:43 | 56.74848 | 60.80536 | 775 ft | 0 kts | 89° |
| 2026-05-01 13:45 | 56.74849 | 60.80546 | 775 ft | 5 kts | 86° |
| 2026-05-01 13:45 | 56.74854 | 60.80701 | 776 ft | 14 kts | 89° |
| 2026-05-01 13:46 | 56.74854 | 60.80840 | 776 ft | 8 kts | 89° |
| 2026-05-01 13:46 | 56.74854 | 60.80936 | 775 ft | 6 kts | 90° |
| 2026-05-01 13:46 | 56.74859 | 60.81031 | 775 ft | 20 kts | 78° |
| 2026-05-01 13:46 | 56.74864 | 60.81345 | 775 ft | 24 kts | 90° |
| 2026-05-01 13:47 | 56.74863 | 60.81625 | 775 ft | 21 kts | 91° |
| 2026-05-01 13:47 | 56.74855 | 60.81866 | 775 ft | 17 kts | 109° |
| 2026-05-01 13:47 | 56.74811 | 60.82026 | 775 ft | 11 kts | 117° |
| 2026-05-01 13:47 | 56.74785 | 60.82121 | 775 ft | 9 kts | 117° |
| 2026-05-01 13:48 | 56.74688 | 60.82201 | 775 ft | 22 kts | 179° |
| 2026-05-01 13:48 | 56.74546 | 60.82202 | 775 ft | 19 kts | 179° |
| 2026-05-01 13:48 | 56.74434 | 60.82196 | 775 ft | 15 kts | 183° |
| 2026-05-01 13:48 | 56.74294 | 60.82178 | 775 ft | 23 kts | 184° |
| 2026-05-01 13:49 | 56.74148 | 60.82158 | 775 ft | 20 kts | 182° |
| 2026-05-01 13:49 | 56.74073 | 60.82189 | 775 ft | 9 kts | 126° |
| 2026-05-01 13:49 | 56.74053 | 60.82411 | 775 ft | 24 kts | 94° |
| 2026-05-01 13:49 | 56.74077 | 60.82683 | 775 ft | 21 kts | 68° |
| 2026-05-01 13:50 | 56.74052 | 60.82873 | 775 ft | 12 kts | 159° |
| 2026-05-01 13:50 | 56.74033 | 60.82848 | 775 ft | 0 kts | 277° |
| 2026-05-01 13:51 | 56.74051 | 60.82451 | 775 ft | 67 kts | 274° |
| 2026-05-01 13:51 | 56.74100 | 60.81226 | 776 ft | 125 kts | 274° |
| 2026-05-01 13:51 | 56.74172 | 60.79351 | 804 ft | 168 kts | 274° |
| 2026-05-01 13:51 | 56.74251 | 60.77093 | 1221 ft | 181 kts | 274° |
| 2026-05-01 13:52 | 56.74290 | 60.74855 | 2036 ft | 178 kts | 275° |
| 2026-05-01 13:52 | 56.74322 | 60.72614 | 2704 ft | 176 kts | 275° |
| 2026-05-01 13:52 | 56.74346 | 60.70393 | 3333 ft | 174 kts | 276° |
| 2026-05-01 13:52 | 56.74369 | 60.68189 | 3944 ft | 174 kts | 277° |
| 2026-05-01 13:53 | 56.74396 | 60.65911 | 4262 ft | 192 kts | 277° |
| 2026-05-01 13:53 | 56.74474 | 60.60478 | 4777 ft | 235 kts | 276° |
| 2026-05-01 13:53 | 56.74517 | 60.57352 | 5117 ft | 257 kts | 276° |
| 2026-05-01 13:54 | 56.74458 | 60.54032 | 5780 ft | 270 kts | 261° |
| 2026-05-01 13:54 | 56.73545 | 60.50978 | 6538 ft | 286 kts | 228° |
| 2026-05-01 13:54 | 56.71954 | 60.48824 | 7314 ft | 293 kts | 211° |
| 2026-05-01 13:54 | 56.70113 | 60.47161 | 7762 ft | 297 kts | 205° |
| 2026-05-01 13:55 | 56.68203 | 60.45678 | 7880 ft | 296 kts | 204° |
| 2026-05-01 13:55 | 56.66310 | 60.44199 | 7895 ft | 296 kts | 206° |
| 2026-05-01 13:55 | 56.64463 | 60.42655 | 7897 ft | 295 kts | 207° |
| 2026-05-01 13:55 | 56.62610 | 60.40999 | 7897 ft | 295 kts | 209° |
| 2026-05-01 13:56 | 56.60790 | 60.39293 | 7899 ft | 295 kts | 210° |
| 2026-05-01 13:56 | 56.58972 | 60.37543 | 7901 ft | 295 kts | 210° |
| 2026-05-01 13:56 | 56.57194 | 60.35808 | 7904 ft | 295 kts | 210° |
| 2026-05-01 13:56 | 56.55388 | 60.34034 | 7908 ft | 294 kts | 210° |
| 2026-05-01 13:57 | 56.53583 | 60.32266 | 7905 ft | 294 kts | 210° |
| 2026-05-01 13:57 | 56.52377 | 60.31089 | 7909 ft | 294 kts | 210° |
| 2026-05-01 13:57 | 56.49981 | 60.28754 | 7908 ft | 294 kts | 210° |
| 2026-05-01 13:57 | 56.48178 | 60.27000 | 7911 ft | 294 kts | 210° |
| 2026-05-01 13:58 | 56.46394 | 60.25270 | 7914 ft | 294 kts | 210° |
| 2026-05-01 13:58 | 56.44587 | 60.23524 | 7910 ft | 294 kts | 210° |
| 2026-05-01 13:58 | 56.42785 | 60.21784 | 7913 ft | 294 kts | 210° |
| 2026-05-01 13:58 | 56.40992 | 60.20000 | 7914 ft | 293 kts | 215° |
| 2026-05-01 13:59 | 56.39422 | 60.17680 | 8086 ft | 294 kts | 228° |
| 2026-05-01 13:59 | 56.37969 | 60.15079 | 8968 ft | 293 kts | 227° |
| 2026-05-01 13:59 | 56.36503 | 60.12503 | 9804 ft | 296 kts | 226° |
| 2026-05-01 13:59 | 56.35018 | 60.09910 | 10284 ft | 309 kts | 226° |
| 2026-05-01 14:00 | 56.33420 | 60.07124 | 10488 ft | 331 kts | 226° |
| 2026-05-01 14:00 | 56.31727 | 60.04179 | 11011 ft | 341 kts | 225° |
| 2026-05-01 14:00 | 56.30004 | 60.01191 | 11719 ft | 344 kts | 225° |
| 2026-05-01 14:00 | 56.28296 | 59.98236 | 12436 ft | 347 kts | 225° |
| 2026-05-01 14:01 | 56.26547 | 59.95211 | 13162 ft | 349 kts | 224° |
| 2026-05-01 14:01 | 56.24783 | 59.92160 | 13849 ft | 352 kts | 224° |
| 2026-05-01 14:01 | 56.23011 | 59.89091 | 14479 ft | 354 kts | 225° |
| 2026-05-01 14:01 | 56.21227 | 59.85999 | 15131 ft | 356 kts | 225° |
| 2026-05-01 14:02 | 56.19464 | 59.82950 | 15765 ft | 358 kts | 225° |
| 2026-05-01 14:02 | 56.17663 | 59.79843 | 16401 ft | 360 kts | 225° |
| 2026-05-01 14:02 | 56.15849 | 59.76718 | 17017 ft | 362 kts | 225° |
| 2026-05-01 14:02 | 56.14026 | 59.73581 | 17626 ft | 364 kts | 225° |
| 2026-05-01 14:03 | 56.12190 | 59.70425 | 18219 ft | 367 kts | 225° |
| 2026-05-01 14:03 | 56.10340 | 59.67251 | 18742 ft | 369 kts | 224° |
| 2026-05-01 14:03 | 56.08497 | 59.64097 | 19245 ft | 372 kts | 224° |
| 2026-05-01 14:03 | 56.06616 | 59.60878 | 19779 ft | 374 kts | 225° |
| 2026-05-01 14:04 | 56.04924 | 59.57337 | 20285 ft | 376 kts | 235° |
| 2026-05-01 14:04 | 56.03594 | 59.53263 | 20787 ft | 380 kts | 242° |
| 2026-05-01 14:04 | 56.02374 | 59.49055 | 21293 ft | 382 kts | 242° |
| 2026-05-01 14:04 | 56.01555 | 59.46243 | 21625 ft | 384 kts | 242° |
| 2026-05-01 14:05 | 55.99906 | 59.40599 | 22291 ft | 388 kts | 241° |
| 2026-05-01 14:05 | 55.98646 | 59.36315 | 22784 ft | 391 kts | 240° |
| 2026-05-01 14:05 | 55.97372 | 59.32014 | 23258 ft | 393 kts | 240° |
| 2026-05-01 14:05 | 55.96089 | 59.27688 | 23693 ft | 396 kts | 240° |
| 2026-05-01 14:06 | 55.94799 | 59.23324 | 24099 ft | 398 kts | 240° |
| 2026-05-01 14:06 | 55.93505 | 59.18938 | 24498 ft | 400 kts | 240° |
| 2026-05-01 14:06 | 55.92221 | 59.14586 | 24862 ft | 402 kts | 240° |
| 2026-05-01 14:06 | 55.90913 | 59.10169 | 25251 ft | 403 kts | 239° |
| 2026-05-01 14:07 | 55.89599 | 59.05754 | 25619 ft | 405 kts | 239° |
| 2026-05-01 14:07 | 55.88266 | 59.01288 | 25977 ft | 407 kts | 239° |
| 2026-05-01 14:07 | 55.86946 | 58.96881 | 26320 ft | 409 kts | 239° |
| 2026-05-01 14:08 | 55.84247 | 58.87906 | 27016 ft | 412 kts | 239° |
| 2026-05-01 14:08 | 55.82887 | 58.83403 | 27360 ft | 414 kts | 239° |
| 2026-05-01 14:08 | 55.81525 | 58.78896 | 27687 ft | 416 kts | 239° |
| 2026-05-01 14:08 | 55.80146 | 58.74326 | 28006 ft | 418 kts | 239° |
| 2026-05-01 14:09 | 55.78784 | 58.69815 | 28334 ft | 420 kts | 239° |
| 2026-05-01 14:09 | 55.77389 | 58.65200 | 28641 ft | 422 kts | 239° |
| 2026-05-01 14:09 | 55.75996 | 58.60587 | 28952 ft | 424 kts | 239° |
| 2026-05-01 14:09 | 55.74616 | 58.56028 | 29242 ft | 426 kts | 238° |
| 2026-05-01 14:10 | 55.73200 | 58.51388 | 29542 ft | 427 kts | 238° |
| 2026-05-01 14:10 | 55.71777 | 58.46753 | 29796 ft | 429 kts | 238° |
| 2026-05-01 14:10 | 55.70346 | 58.42088 | 30063 ft | 431 kts | 238° |
| 2026-05-01 14:10 | 55.68910 | 58.37398 | 30293 ft | 433 kts | 238° |
| 2026-05-01 14:11 | 55.67473 | 58.32702 | 30491 ft | 434 kts | 238° |
| 2026-05-01 14:11 | 55.64591 | 58.23314 | 30998 ft | 434 kts | 238° |
| 2026-05-01 14:11 | 55.63138 | 58.18628 | 31303 ft | 433 kts | 239° |
| 2026-05-01 14:12 | 55.61688 | 58.13962 | 31603 ft | 432 kts | 239° |
| 2026-05-01 14:12 | 55.60262 | 58.09361 | 31897 ft | 431 kts | 239° |
| 2026-05-01 14:12 | 55.58817 | 58.04709 | 32189 ft | 430 kts | 239° |
| 2026-05-01 14:12 | 55.57379 | 58.00073 | 32508 ft | 429 kts | 239° |
| 2026-05-01 14:13 | 55.55951 | 57.95467 | 32801 ft | 428 kts | 239° |
| 2026-05-01 14:13 | 55.54992 | 57.92393 | 32995 ft | 427 kts | 239° |
| 2026-05-01 14:13 | 55.53087 | 57.86334 | 33385 ft | 426 kts | 239° |
| 2026-05-01 14:13 | 55.51641 | 57.81744 | 33682 ft | 425 kts | 239° |
| 2026-05-01 14:14 | 55.50219 | 57.77247 | 33957 ft | 424 kts | 239° |
| 2026-05-01 14:14 | 55.48776 | 57.72693 | 34208 ft | 424 kts | 239° |
| 2026-05-01 14:14 | 55.47333 | 57.68145 | 34414 ft | 424 kts | 239° |
| 2026-05-01 14:14 | 55.45895 | 57.63614 | 34619 ft | 423 kts | 239° |
| 2026-05-01 14:15 | 55.44457 | 57.59086 | 34817 ft | 423 kts | 239° |
| 2026-05-01 14:15 | 55.43012 | 57.54561 | 35015 ft | 423 kts | 239° |
| 2026-05-01 14:15 | 55.41589 | 57.50109 | 35194 ft | 423 kts | 239° |
| 2026-05-01 14:15 | 55.40148 | 57.45604 | 35374 ft | 423 kts | 239° |
| 2026-05-01 14:16 | 55.38693 | 57.41065 | 35552 ft | 423 kts | 239° |
| 2026-05-01 14:16 | 55.37263 | 57.36612 | 35728 ft | 423 kts | 239° |
| 2026-05-01 14:16 | 55.35799 | 57.32066 | 35891 ft | 423 kts | 239° |
| 2026-05-01 14:16 | 55.34372 | 57.27638 | 35943 ft | 422 kts | 239° |
| 2026-05-01 14:17 | 55.31479 | 57.18665 | 35946 ft | 420 kts | 239° |
| 2026-05-01 14:17 | 55.28618 | 57.09804 | 35945 ft | 419 kts | 239° |
| 2026-05-01 14:18 | 55.25727 | 57.00895 | 35946 ft | 419 kts | 239° |
| 2026-05-01 14:18 | 55.23317 | 56.93501 | 35942 ft | 419 kts | 239° |
| 2026-05-01 14:19 | 55.19942 | 56.83152 | 35943 ft | 419 kts | 239° |
| 2026-05-01 14:19 | 55.17054 | 56.74343 | 35938 ft | 419 kts | 239° |
| 2026-05-01 14:20 | 55.12692 | 56.61117 | 35931 ft | 419 kts | 239° |
| 2026-05-01 14:21 | 55.09795 | 56.52356 | 35932 ft | 419 kts | 239° |
| 2026-05-01 14:21 | 55.06864 | 56.43533 | 35930 ft | 419 kts | 239° |
| 2026-05-01 14:22 | 55.02478 | 56.30347 | 35933 ft | 420 kts | 239° |